Time,TemperatureF,DewpointF,PressureIn,WindDirection,WindDirectionDegrees,WindSpeedMPH,WindSpeedGustMPH,Humidity,HourlyPrecipIn,Conditions,Clouds,dailyrainin,SoftwareType,DateUTC
2013-09-11 00:01:00,74.5,66.1,29.81,East,86,0.0,0.0,75,0.00,,,0.01,Wunderground v.1.15,2013-09-11 07:01:00,
2013-09-11 00:06:00,74.6,66.5,29.81,East,86,0.0,0.0,76,0.00,,,0.01,Wunderground v.1.15,2013-09-11 07:06:00,
2013-09-11 00:11:00,74.8,66.7,29.81,East,86,0.0,0.0,76,0.00,,,0.01,Wunderground v.1.15,2013-09-11 07:11:00,
2013-09-11 00:16:00,75.5,66.6,29.82,East,86,0.0,1.0,74,0.00,,,0.01,Wunderground v.1.15,2013-09-11 07:16:00,
2013-09-11 00:21:00,75.9,67.0,29.82,East,86,0.0,0.0,74,0.00,,,0.01,Wunderground v.1.15,2013-09-11 07:21:00,
2013-09-11 00:26:00,75.9,67.4,29.82,East,88,0.0,1.0,75,0.00,,,0.01,Wunderground v.1.15,2013-09-11 07:26:00,
2013-09-11 00:31:00,75.8,67.3,29.82,East,87,0.0,0.0,75,0.00,,,0.01,Wunderground v.1.15,2013-09-11 07:31:00,
2013-09-11 00:36:00,75.7,67.2,29.82,East,87,0.0,0.0,75,0.00,,,0.01,Wunderground v.1.15,2013-09-11 07:36:00,
2013-09-11 00:41:00,75.7,67.6,29.82,East,87,0.0,0.0,76,0.00,,,0.01,Wunderground v.1.15,2013-09-11 07:41:00,
2013-09-11 00:46:00,75.1,67.8,29.82,East,88,0.0,0.0,78,0.00,,,0.01,Wunderground v.1.15,2013-09-11 07:46:00,
2013-09-11 00:51:00,74.3,67.7,29.82,East,87,0.0,0.0,80,0.00,,,0.01,Wunderground v.1.15,2013-09-11 07:51:00,
2013-09-11 00:56:00,73.8,67.2,29.82,East,86,0.0,0.0,80,0.00,,,0.01,Wunderground v.1.15,2013-09-11 07:56:00,
2013-09-11 01:01:00,73.5,66.6,29.82,East,86,0.0,0.0,79,0.00,,,0.00,Wunderground v.1.15,2013-09-11 08:01:00,
2013-09-11 01:06:00,73.6,66.7,29.82,East,88,0.0,1.0,79,0.00,,,0.00,Wunderground v.1.15,2013-09-11 08:06:00,
2013-09-11 01:11:00,74.2,67.3,29.83,North,4,0.0,0.0,79,0.00,,,0.00,Wunderground v.1.15,2013-09-11 08:11:00,
2013-09-11 01:16:00,74.5,67.2,29.82,NE,43,0.0,2.0,78,0.00,,,0.00,Wunderground v.1.15,2013-09-11 08:16:00,
2013-09-11 01:21:00,74.6,67.3,29.82,ENE,63,0.0,0.0,78,0.00,,,0.00,Wunderground v.1.15,2013-09-11 08:21:00,
2013-09-11 01:26:00,75.1,67.4,29.82,ENE,68,0.0,3.0,77,0.00,,,0.00,Wunderground v.1.15,2013-09-11 08:26:00,
2013-09-11 01:31:00,75.4,67.3,29.82,ENE,70,0.0,1.0,76,0.00,,,0.00,Wunderground v.1.15,2013-09-11 08:31:00,
2013-09-11 01:36:00,75.8,67.3,29.82,ENE,69,1.0,4.0,75,0.00,,,0.00,Wunderground v.1.15,2013-09-11 08:36:00,
2013-09-11 01:41:00,76.1,67.6,29.82,ENE,70,0.0,1.0,75,0.00,,,0.00,Wunderground v.1.15,2013-09-11 08:41:00,
2013-09-11 01:46:00,76.2,67.7,29.82,North,356,3.0,4.0,75,0.00,,,0.00,Wunderground v.1.15,2013-09-11 08:46:00,
2013-09-11 01:51:00,76.0,67.9,29.82,North,5,0.0,1.0,76,0.00,,,0.00,Wunderground v.1.15,2013-09-11 08:51:00,
2013-09-11 01:56:00,75.5,67.8,29.82,North,5,0.0,1.0,77,0.00,,,0.00,Wunderground v.1.15,2013-09-11 08:56:00,
2013-09-11 02:01:00,74.9,67.6,29.82,North,5,0.0,1.0,78,0.00,,,0.00,Wunderground v.1.15,2013-09-11 09:01:00,
2013-09-11 02:06:00,74.3,67.4,29.82,North,5,1.0,1.0,79,0.00,,,0.00,Wunderground v.1.15,2013-09-11 09:06:00,
2013-09-11 02:11:00,73.8,67.2,29.82,North,5,0.0,0.0,80,0.00,,,0.00,Wunderground v.1.15,2013-09-11 09:11:00,
2013-09-11 02:16:00,73.5,67.3,29.82,North,5,0.0,0.0,81,0.00,,,0.00,Wunderground v.1.15,2013-09-11 09:16:00,
2013-09-11 02:21:00,73.6,67.4,29.82,ENE,70,0.0,0.0,81,0.00,,,0.00,Wunderground v.1.15,2013-09-11 09:21:00,
2013-09-11 02:26:00,74.0,67.4,29.82,NNW,334,0.0,1.0,80,0.00,,,0.00,Wunderground v.1.15,2013-09-11 09:26:00,
2013-09-11 02:31:00,74.4,67.8,29.82,North,6,2.0,3.0,80,0.00,,,0.00,Wunderground v.1.15,2013-09-11 09:31:00,
2013-09-11 02:36:00,74.3,67.4,29.82,North,10,0.0,3.0,79,0.00,,,0.00,Wunderground v.1.15,2013-09-11 09:36:00,
2013-09-11 02:41:00,74.2,67.6,29.82,North,11,0.0,1.0,80,0.00,,,0.00,Wunderground v.1.15,2013-09-11 09:41:00,
2013-09-11 02:46:00,74.0,67.4,29.82,East,91,0.0,1.0,80,0.00,,,0.00,Wunderground v.1.15,2013-09-11 09:46:00,
2013-09-11 02:51:00,74.2,67.6,29.82,ENE,70,0.0,2.0,80,0.00,,,0.00,Wunderground v.1.15,2013-09-11 09:51:00,
2013-09-11 02:56:00,74.6,67.7,29.82,ENE,74,0.0,2.0,79,0.00,,,0.00,Wunderground v.1.15,2013-09-11 09:56:00,
2013-09-11 03:01:00,74.6,67.7,29.82,ENE,60,0.0,1.0,79,0.00,,,0.00,Wunderground v.1.15,2013-09-11 10:01:00,
2013-09-11 03:06:00,74.5,67.6,29.82,ENE,70,0.0,1.0,79,0.00,,,0.00,Wunderground v.1.15,2013-09-11 10:06:00,
2013-09-11 03:11:00,74.4,67.5,29.82,NE,34,0.0,0.0,79,0.00,,,0.00,Wunderground v.1.15,2013-09-11 10:11:00,
2013-09-11 03:16:00,74.4,67.5,29.82,ENE,70,1.0,1.0,79,0.00,,,0.00,Wunderground v.1.15,2013-09-11 10:16:00,
2013-09-11 03:21:00,74.7,67.8,29.82,ENE,70,1.0,2.0,79,0.00,,,0.00,Wunderground v.1.15,2013-09-11 10:21:00,
2013-09-11 03:26:00,75.0,67.7,29.82,ESE,107,0.0,4.0,78,0.00,,,0.00,Wunderground v.1.15,2013-09-11 10:26:00,
2013-09-11 03:31:00,75.1,67.8,29.82,East,80,0.0,2.0,78,0.00,,,0.00,Wunderground v.1.15,2013-09-11 10:31:00,
2013-09-11 03:36:00,75.1,67.8,29.82,East,79,0.0,3.0,78,0.00,,,0.00,Wunderground v.1.15,2013-09-11 10:36:00,
2013-09-11 03:41:00,75.1,67.8,29.82,ENE,75,0.0,1.0,78,0.00,,,0.00,Wunderground v.1.15,2013-09-11 10:41:00,
2013-09-11 03:46:00,75.0,68.0,29.82,East,80,0.0,1.0,79,0.00,,,0.00,Wunderground v.1.15,2013-09-11 10:46:00,
2013-09-11 03:51:00,74.9,67.9,29.82,East,82,0.0,1.0,79,0.00,,,0.00,Wunderground v.1.15,2013-09-11 10:51:00,
2013-09-11 03:56:00,74.8,68.2,29.82,ENE,71,0.0,1.0,80,0.00,,,0.00,Wunderground v.1.15,2013-09-11 10:56:00,
2013-09-11 04:01:00,74.7,68.1,29.82,East,95,0.0,1.0,80,0.00,,,0.00,Wunderground v.1.15,2013-09-11 11:01:00,
2013-09-11 04:06:00,74.5,67.9,29.82,East,95,0.0,1.0,80,0.00,,,0.00,Wunderground v.1.15,2013-09-11 11:06:00,
2013-09-11 04:11:00,74.2,68.0,29.82,East,95,0.0,0.0,81,0.00,,,0.00,Wunderground v.1.15,2013-09-11 11:11:00,
2013-09-11 04:16:00,73.7,67.5,29.82,North,6,1.0,4.0,81,0.00,,,0.00,Wunderground v.1.15,2013-09-11 11:16:00,
2013-09-11 04:21:00,73.2,67.4,29.82,NNW,347,0.0,1.0,82,0.00,,,0.00,Wunderground v.1.15,2013-09-11 11:21:00,
2013-09-11 04:26:00,72.8,67.3,29.82,ENE,75,0.0,1.0,83,0.00,,,0.00,Wunderground v.1.15,2013-09-11 11:26:00,
2013-09-11 04:31:00,72.8,67.3,29.82,ENE,75,0.0,0.0,83,0.00,,,0.00,Wunderground v.1.15,2013-09-11 11:31:00,
2013-09-11 04:36:00,72.8,67.3,29.82,NE,49,0.0,1.0,83,0.00,,,0.00,Wunderground v.1.15,2013-09-11 11:36:00,
2013-09-11 04:41:00,72.7,67.2,29.82,ENE,75,0.0,1.0,83,0.00,,,0.00,Wunderground v.1.15,2013-09-11 11:41:00,
2013-09-11 04:46:00,73.1,67.3,29.82,ENE,65,0.0,3.0,82,0.00,,,0.00,Wunderground v.1.15,2013-09-11 11:46:00,
2013-09-11 04:51:00,73.3,67.1,29.82,ENE,67,0.0,0.0,81,0.00,,,0.00,Wunderground v.1.15,2013-09-11 11:51:00,
2013-09-11 04:56:00,73.4,67.2,29.82,ENE,62,0.0,0.0,81,0.00,,,0.00,Wunderground v.1.15,2013-09-11 11:56:00,
2013-09-11 05:01:00,73.1,66.9,29.83,North,1,2.0,3.0,81,0.00,,,0.00,Wunderground v.1.15,2013-09-11 12:01:00,
2013-09-11 05:06:00,71.8,66.4,29.83,North,6,1.0,4.0,83,0.00,,,0.00,Wunderground v.1.15,2013-09-11 12:06:00,
2013-09-11 05:11:00,71.2,66.1,29.83,North,8,0.0,1.0,84,0.00,,,0.00,Wunderground v.1.15,2013-09-11 12:11:00,
2013-09-11 05:16:00,71.0,66.3,29.83,North,10,0.0,1.0,85,0.00,,,0.00,Wunderground v.1.15,2013-09-11 12:16:00,
2013-09-11 05:21:00,71.0,66.3,29.83,North,9,0.0,0.0,85,0.00,,,0.00,Wunderground v.1.15,2013-09-11 12:21:00,
2013-09-11 05:26:00,71.0,66.3,29.83,NNE,23,0.0,1.0,85,0.00,,,0.00,Wunderground v.1.15,2013-09-11 12:26:00,
2013-09-11 05:31:00,71.0,66.6,29.84,NNE,18,1.0,1.0,86,0.00,,,0.00,Wunderground v.1.15,2013-09-11 12:31:00,
2013-09-11 05:36:00,70.7,66.3,29.84,NNE,18,0.0,2.0,86,0.00,,,0.00,Wunderground v.1.15,2013-09-11 12:36:00,
2013-09-11 05:41:00,70.7,66.6,29.84,ENE,63,0.0,0.0,87,0.00,,,0.00,Wunderground v.1.15,2013-09-11 12:41:00,
2013-09-11 05:46:00,70.8,66.7,29.84,NE,41,1.0,1.0,87,0.00,,,0.00,Wunderground v.1.15,2013-09-11 12:46:00,
2013-09-11 05:51:00,70.9,66.5,29.84,North,359,0.0,2.0,86,0.00,,,0.00,Wunderground v.1.15,2013-09-11 12:51:00,
2013-09-11 05:56:00,70.8,66.4,29.84,North,360,0.0,2.0,86,0.00,,,0.00,Wunderground v.1.15,2013-09-11 12:56:00,
2013-09-11 06:01:00,70.7,66.6,29.84,North,359,0.0,1.0,87,0.00,,,0.00,Wunderground v.1.15,2013-09-11 13:01:00,
2013-09-11 06:06:00,70.8,66.7,29.84,North,359,0.0,1.0,87,0.00,,,0.00,Wunderground v.1.15,2013-09-11 13:06:00,
2013-09-11 06:11:00,70.6,66.5,29.85,North,11,1.0,2.0,87,0.00,,,0.00,Wunderground v.1.15,2013-09-11 13:11:00,
2013-09-11 06:16:00,70.6,66.5,29.85,North,349,2.0,2.0,87,0.00,,,0.00,Wunderground v.1.15,2013-09-11 13:16:00,
2013-09-11 06:21:00,71.0,66.6,29.85,ESE,102,0.0,1.0,86,0.00,,,0.00,Wunderground v.1.15,2013-09-11 13:21:00,
2013-09-11 06:26:00,71.3,66.9,29.85,East,101,0.0,1.0,86,0.00,,,0.00,Wunderground v.1.15,2013-09-11 13:26:00,
2013-09-11 06:31:00,71.5,67.1,29.85,East,101,0.0,1.0,86,0.00,,,0.00,Wunderground v.1.15,2013-09-11 13:31:00,
2013-09-11 06:36:00,71.2,66.5,29.85,NW,322,1.0,3.0,85,0.00,,,0.00,Wunderground v.1.15,2013-09-11 13:36:00,
2013-09-11 06:41:00,71.1,66.7,29.86,NNW,339,0.0,2.0,86,0.00,,,0.00,Wunderground v.1.15,2013-09-11 13:41:00,
2013-09-11 06:46:00,71.3,66.9,29.86,East,91,0.0,2.0,86,0.00,,,0.00,Wunderground v.1.15,2013-09-11 13:46:00,
2013-09-11 06:51:00,72.2,67.4,29.86,East,86,0.0,1.0,85,0.00,,,0.00,Wunderground v.1.15,2013-09-11 13:51:00,
2013-09-11 06:56:00,73.4,67.9,29.86,East,79,0.0,1.0,83,0.00,,,0.00,Wunderground v.1.15,2013-09-11 13:56:00,
2013-09-11 07:01:00,74.4,68.2,29.86,NE,46,0.0,1.0,81,0.00,,,0.00,Wunderground v.1.15,2013-09-11 14:01:00,
2013-09-11 07:05:00,74.1,67.9,29.86,NNE,24,0.0,3.0,81,0.00,,,0.00,Wunderground v.1.15,2013-09-11 14:05:00,
2013-09-11 07:10:00,73.8,68.0,29.86,North,358,2.0,2.0,82,0.00,,,0.00,Wunderground v.1.15,2013-09-11 14:10:00,
2013-09-11 07:15:00,73.3,67.8,29.86,North,353,0.0,2.0,83,0.00,,,0.00,Wunderground v.1.15,2013-09-11 14:15:00,
2013-09-11 07:20:00,73.2,67.7,29.87,NNE,12,2.0,3.0,83,0.00,,,0.00,Wunderground v.1.15,2013-09-11 14:20:00,
2013-09-11 07:25:00,73.4,67.9,29.87,NNW,348,0.0,4.0,83,0.00,,,0.00,Wunderground v.1.15,2013-09-11 14:25:00,
2013-09-11 07:30:00,74.1,68.3,29.87,NNE,20,1.0,3.0,82,0.00,,,0.00,Wunderground v.1.15,2013-09-11 14:30:00,
2013-09-11 07:35:00,74.4,68.2,29.87,North,353,3.0,4.0,81,0.00,,,0.00,Wunderground v.1.15,2013-09-11 14:35:00,
2013-09-11 07:40:00,75.1,67.8,29.87,East,91,0.0,2.0,78,0.00,,,0.00,Wunderground v.1.15,2013-09-11 14:40:00,
2013-09-11 07:45:00,76.3,67.8,29.88,North,8,0.0,2.0,75,0.00,,,0.00,Wunderground v.1.15,2013-09-11 14:45:00,
2013-09-11 07:50:00,77.2,67.9,29.88,West,266,1.0,1.0,73,0.00,,,0.00,Wunderground v.1.15,2013-09-11 14:50:00,
2013-09-11 07:55:00,77.7,68.0,29.88,ESE,113,1.0,1.0,72,0.00,,,0.00,Wunderground v.1.15,2013-09-11 14:55:00,
2013-09-11 08:00:00,78.1,68.3,29.88,NE,56,1.0,2.0,72,0.00,,,0.00,Wunderground v.1.15,2013-09-11 15:00:00,
2013-09-11 08:05:00,78.0,67.8,29.88,NE,43,0.0,8.0,71,0.00,,,0.00,Wunderground v.1.15,2013-09-11 15:05:00,
2013-09-11 08:10:00,78.2,68.0,29.88,WNW,293,2.0,3.0,71,0.00,,,0.00,Wunderground v.1.15,2013-09-11 15:10:00,
2013-09-11 08:15:00,78.5,68.3,29.88,NNW,329,1.0,4.0,71,0.00,,,0.00,Wunderground v.1.15,2013-09-11 15:15:00,
2013-09-11 08:20:00,78.9,68.3,29.88,NW,315,0.0,4.0,70,0.00,,,0.00,Wunderground v.1.15,2013-09-11 15:20:00,
2013-09-11 08:25:00,79.0,68.4,29.88,NNE,15,1.0,6.0,70,0.00,,,0.00,Wunderground v.1.15,2013-09-11 15:25:00,
2013-09-11 08:30:00,79.1,68.5,29.88,NNW,333,3.0,5.0,70,0.00,,,0.00,Wunderground v.1.15,2013-09-11 15:30:00,
2013-09-11 08:35:00,79.6,69.0,29.88,NE,51,0.0,6.0,70,0.00,,,0.00,Wunderground v.1.15,2013-09-11 15:35:00,
2013-09-11 08:40:00,79.9,68.8,29.89,NNW,339,1.0,5.0,69,0.00,,,0.00,Wunderground v.1.15,2013-09-11 15:40:00,
2013-09-11 08:45:00,80.3,69.6,29.89,NNW,346,4.0,5.0,70,0.00,,,0.00,Wunderground v.1.15,2013-09-11 15:45:00,
2013-09-11 08:50:00,80.7,69.6,29.89,NE,35,0.0,3.0,69,0.00,,,0.00,Wunderground v.1.15,2013-09-11 15:50:00,
2013-09-11 08:55:00,80.9,69.3,29.89,North,349,4.0,6.0,68,0.00,,,0.00,Wunderground v.1.15,2013-09-11 15:55:00,
2013-09-11 09:00:00,81.0,69.4,29.89,NNE,12,4.0,8.0,68,0.00,,,0.00,Wunderground v.1.15,2013-09-11 16:00:00,
2013-09-11 09:05:00,81.0,69.4,29.89,NNE,30,1.0,8.0,68,0.00,,,0.00,Wunderground v.1.15,2013-09-11 16:05:00,
2013-09-11 09:10:00,81.6,69.1,29.89,NNE,16,1.0,3.0,66,0.00,,,0.00,Wunderground v.1.15,2013-09-11 16:10:00,
2013-09-11 09:15:00,82.1,69.6,29.89,NNE,16,3.0,6.0,66,0.00,,,0.00,Wunderground v.1.15,2013-09-11 16:15:00,
2013-09-11 09:20:00,82.3,69.4,29.89,NNW,335,3.0,4.0,65,0.00,,,0.00,Wunderground v.1.15,2013-09-11 16:20:00,
2013-09-11 09:25:00,82.3,69.8,29.89,North,356,4.0,7.0,66,0.00,,,0.00,Wunderground v.1.15,2013-09-11 16:25:00,
2013-09-11 09:30:00,82.3,69.8,29.89,NW,307,2.0,5.0,66,0.00,,,0.00,Wunderground v.1.15,2013-09-11 16:30:00,
2013-09-11 09:35:00,83.0,69.6,29.89,North,354,3.0,6.0,64,0.00,,,0.00,Wunderground v.1.15,2013-09-11 16:35:00,
2013-09-11 09:40:00,83.6,70.1,29.89,NNW,332,3.0,3.0,64,0.00,,,0.00,Wunderground v.1.15,2013-09-11 16:40:00,
2013-09-11 09:45:00,83.7,69.3,29.90,North,353,6.0,7.0,62,0.00,,,0.00,Wunderground v.1.15,2013-09-11 16:45:00,
2013-09-11 09:50:00,83.7,70.2,29.89,NNE,12,7.0,7.0,64,0.00,,,0.00,Wunderground v.1.15,2013-09-11 16:50:00,
2013-09-11 09:55:00,84.0,70.0,29.89,NNE,22,4.0,8.0,63,0.00,,,0.00,Wunderground v.1.15,2013-09-11 16:55:00,
2013-09-11 10:00:00,84.2,70.2,29.89,North,359,4.0,7.0,63,0.00,,,0.00,Wunderground v.1.15,2013-09-11 17:00:00,
2013-09-11 10:05:00,84.5,70.0,29.89,North,353,5.0,8.0,62,0.00,,,0.00,Wunderground v.1.15,2013-09-11 17:05:00,
2013-09-11 10:10:00,84.7,69.8,29.89,NNW,335,5.0,5.0,61,0.00,,,0.00,Wunderground v.1.15,2013-09-11 17:10:00,
2013-09-11 10:15:00,85.0,68.6,29.89,NNW,348,4.0,8.0,58,0.00,,,0.00,Wunderground v.1.15,2013-09-11 17:15:00,
2013-09-11 10:20:00,85.7,68.2,29.89,NNW,346,2.0,4.0,56,0.00,,,0.00,Wunderground v.1.15,2013-09-11 17:20:00,
2013-09-11 10:25:00,85.9,67.9,29.89,West,273,1.0,5.0,55,0.00,,,0.00,Wunderground v.1.15,2013-09-11 17:25:00,
2013-09-11 10:30:00,86.3,68.8,29.89,NNW,346,3.0,4.0,56,0.00,,,0.00,Wunderground v.1.15,2013-09-11 17:30:00,
2013-09-11 10:35:00,86.7,68.1,29.89,East,92,2.0,4.0,54,0.00,,,0.00,Wunderground v.1.15,2013-09-11 17:35:00,
2013-09-11 10:40:00,87.6,68.4,29.89,NW,311,1.0,3.0,53,0.00,,,0.00,Wunderground v.1.15,2013-09-11 17:40:00,
2013-09-11 10:45:00,87.8,68.0,29.88,NW,314,3.0,4.0,52,0.00,,,0.00,Wunderground v.1.15,2013-09-11 17:45:00,
2013-09-11 10:50:00,87.7,68.4,29.88,NW,304,3.0,4.0,53,0.00,,,0.00,Wunderground v.1.15,2013-09-11 17:50:00,
2013-09-11 10:55:00,87.6,69.4,29.88,NW,304,3.0,6.0,55,0.00,,,0.00,Wunderground v.1.15,2013-09-11 17:55:00,
2013-09-11 11:00:00,87.9,70.2,29.88,North,351,3.0,4.0,56,0.00,,,0.00,Wunderground v.1.15,2013-09-11 18:00:00,
2013-09-11 11:05:00,88.1,69.9,29.88,NW,325,1.0,5.0,55,0.00,,,0.00,Wunderground v.1.15,2013-09-11 18:05:00,
2013-09-11 11:10:00,88.7,69.9,29.88,NW,319,3.0,4.0,54,0.00,,,0.00,Wunderground v.1.15,2013-09-11 18:10:00,
2013-09-11 11:15:00,88.8,68.9,29.88,WNW,300,3.0,5.0,52,0.00,,,0.00,Wunderground v.1.15,2013-09-11 18:15:00,
2013-09-11 11:20:00,89.3,69.4,29.88,WNW,295,2.0,3.0,52,0.00,,,0.00,Wunderground v.1.15,2013-09-11 18:20:00,
2013-09-11 11:25:00,89.5,68.4,29.88,WNW,297,3.0,4.0,50,0.00,,,0.00,Wunderground v.1.15,2013-09-11 18:25:00,
2013-09-11 11:30:00,89.7,68.6,29.88,West,273,3.0,3.0,50,0.00,,,0.00,Wunderground v.1.15,2013-09-11 18:30:00,
2013-09-11 11:35:00,89.7,68.0,29.88,WSW,251,3.0,4.0,49,0.00,,,0.00,Wunderground v.1.15,2013-09-11 18:35:00,
2013-09-11 11:40:00,89.8,68.7,29.87,WNW,291,2.0,3.0,50,0.00,,,0.00,Wunderground v.1.15,2013-09-11 18:40:00,
2013-09-11 11:45:00,90.7,68.3,29.87,WNW,297,0.0,3.0,48,0.00,,,0.00,Wunderground v.1.15,2013-09-11 18:45:00,
2013-09-11 11:50:00,91.0,68.0,29.87,North,351,1.0,2.0,47,0.00,,,0.00,Wunderground v.1.15,2013-09-11 18:50:00,
2013-09-11 11:55:00,90.9,69.1,29.87,WNW,303,1.0,4.0,49,0.00,,,0.00,Wunderground v.1.15,2013-09-11 18:55:00,
2013-09-11 12:00:00,91.3,66.3,29.86,SE,139,2.0,2.0,44,0.00,,,0.00,Wunderground v.1.15,2013-09-11 19:00:00,
2013-09-11 12:05:00,91.8,66.1,29.87,West,260,2.0,10.0,43,0.00,,,0.00,Wunderground v.1.15,2013-09-11 19:05:00,
2013-09-11 12:10:00,91.9,66.9,29.86,West,262,4.0,4.0,44,0.00,,,0.00,Wunderground v.1.15,2013-09-11 19:10:00,
2013-09-11 12:15:00,92.1,67.1,29.86,WSW,243,2.0,6.0,44,0.00,,,0.00,Wunderground v.1.15,2013-09-11 19:15:00,
2013-09-11 12:20:00,92.8,67.7,29.86,West,278,5.0,5.0,44,0.00,,,0.00,Wunderground v.1.15,2013-09-11 19:20:00,
2013-09-11 12:25:00,92.4,66.7,29.86,West,281,5.0,6.0,43,0.00,,,0.00,Wunderground v.1.15,2013-09-11 19:25:00,
2013-09-11 12:30:00,92.2,67.8,29.86,West,273,6.0,8.0,45,0.00,,,0.00,Wunderground v.1.15,2013-09-11 19:30:00,
2013-09-11 12:35:00,92.1,66.4,29.86,West,259,4.0,11.0,43,0.00,,,0.00,Wunderground v.1.15,2013-09-11 19:35:00,
2013-09-11 12:40:00,92.1,67.1,29.86,West,270,7.0,7.0,44,0.00,,,0.00,Wunderground v.1.15,2013-09-11 19:40:00,
2013-09-11 12:45:00,92.6,66.8,29.86,WNW,300,2.0,8.0,43,0.00,,,0.00,Wunderground v.1.15,2013-09-11 19:45:00,
2013-09-11 12:50:00,92.3,70.4,29.85,West,271,9.0,9.0,49,0.00,,,0.00,Wunderground v.1.15,2013-09-11 19:50:00,
2013-09-11 12:55:00,93.2,66.7,29.85,WNW,287,2.0,9.0,42,0.00,,,0.00,Wunderground v.1.15,2013-09-11 19:55:00,
2013-09-11 13:00:00,93.6,68.4,29.85,SW,236,2.0,3.0,44,0.00,,,0.00,Wunderground v.1.15,2013-09-11 20:00:00,
2013-09-11 13:05:00,93.7,66.4,29.85,SSW,204,0.0,8.0,41,0.00,,,0.00,Wunderground v.1.15,2013-09-11 20:05:00,
2013-09-11 13:10:00,94.7,67.3,29.85,South,184,0.0,2.0,41,0.00,,,0.00,Wunderground v.1.15,2013-09-11 20:10:00,
2013-09-11 13:15:00,95.2,67.1,29.85,SSE,158,1.0,4.0,40,0.00,,,0.00,Wunderground v.1.15,2013-09-11 20:15:00,
2013-09-11 13:20:00,95.0,64.6,29.84,WSW,250,1.0,1.0,37,0.00,,,0.00,Wunderground v.1.15,2013-09-11 20:20:00,
2013-09-11 13:25:00,94.6,70.0,29.84,SW,226,7.0,9.0,45,0.00,,,0.00,Wunderground v.1.15,2013-09-11 20:25:00,
2013-09-11 13:30:00,93.6,68.4,29.84,West,260,7.0,13.0,44,0.00,,,0.00,Wunderground v.1.15,2013-09-11 20:30:00,
2013-09-11 13:35:00,93.5,67.6,29.83,WSW,258,6.0,8.0,43,0.00,,,0.00,Wunderground v.1.15,2013-09-11 20:35:00,
2013-09-11 13:40:00,93.7,68.5,29.83,West,277,6.0,9.0,44,0.00,,,0.00,Wunderground v.1.15,2013-09-11 20:40:00,
2013-09-11 13:44:00,93.9,69.3,29.83,West,278,3.0,8.0,45,0.00,,,0.00,Wunderground v.1.15,2013-09-11 20:44:00,
2013-09-11 13:49:00,93.5,67.6,29.83,West,278,6.0,9.0,43,0.00,,,0.00,Wunderground v.1.15,2013-09-11 20:49:00,
2013-09-11 13:54:00,93.3,67.5,29.83,West,260,2.0,10.0,43,0.00,,,0.00,Wunderground v.1.15,2013-09-11 20:54:00,
2013-09-11 13:59:00,93.7,69.2,29.83,WNW,296,5.0,10.0,45,0.00,,,0.00,Wunderground v.1.15,2013-09-11 20:59:00,
2013-09-11 14:04:00,93.3,68.8,29.83,West,263,6.0,10.0,45,0.00,,,0.00,Wunderground v.1.15,2013-09-11 21:04:00,
2013-09-11 14:09:00,93.6,67.1,29.83,WSW,256,2.0,11.0,42,0.00,,,0.00,Wunderground v.1.15,2013-09-11 21:09:00,
2013-09-11 14:14:00,93.7,67.8,29.82,WSW,255,3.0,12.0,43,0.00,,,0.00,Wunderground v.1.15,2013-09-11 21:14:00,
2013-09-11 14:19:00,94.1,68.2,29.82,WNW,284,8.0,12.0,43,0.00,,,0.00,Wunderground v.1.15,2013-09-11 21:19:00,
2013-09-11 14:24:00,94.3,64.8,29.82,West,271,5.0,11.0,38,0.00,,,0.00,Wunderground v.1.15,2013-09-11 21:24:00,
2013-09-11 14:29:00,94.6,60.2,29.82,West,264,9.0,11.0,32,0.00,,,0.00,Wunderground v.1.15,2013-09-11 21:29:00,
2013-09-11 14:34:00,94.8,57.6,29.82,West,263,5.0,10.0,29,0.00,,,0.00,Wunderground v.1.15,2013-09-11 21:34:00,
2013-09-11 14:39:00,95.0,58.7,29.81,West,274,7.0,12.0,30,0.00,,,0.00,Wunderground v.1.15,2013-09-11 21:39:00,
2013-09-11 14:44:00,95.2,57.0,29.81,WNW,284,4.0,11.0,28,0.00,,,0.00,Wunderground v.1.15,2013-09-11 21:44:00,
2013-09-11 14:49:00,95.4,57.1,29.81,West,267,9.0,11.0,28,0.00,,,0.00,Wunderground v.1.15,2013-09-11 21:49:00,
2013-09-11 14:54:00,95.5,57.2,29.81,WSW,256,3.0,8.0,28,0.00,,,0.00,Wunderground v.1.15,2013-09-11 21:54:00,
2013-09-11 14:59:00,95.4,58.1,29.81,SSE,165,0.0,8.0,29,0.00,,,0.00,Wunderground v.1.15,2013-09-11 21:59:00,
2013-09-11 15:04:00,96.0,61.4,29.81,West,273,2.0,4.0,32,0.00,,,0.00,Wunderground v.1.15,2013-09-11 22:04:00,
2013-09-11 15:09:00,96.1,59.7,29.80,West,271,3.0,8.0,30,0.00,,,0.00,Wunderground v.1.15,2013-09-11 22:09:00,
2013-09-11 15:14:00,96.3,63.4,29.80,WNW,285,5.0,7.0,34,0.00,,,0.00,Wunderground v.1.15,2013-09-11 22:14:00,
2013-09-11 15:19:00,95.5,65.1,29.80,West,271,6.0,7.0,37,0.00,,,0.00,Wunderground v.1.15,2013-09-11 22:19:00,
2013-09-11 15:24:00,95.3,64.9,29.80,West,278,3.0,7.0,37,0.00,,,0.00,Wunderground v.1.15,2013-09-11 22:24:00,
2013-09-11 15:29:00,95.6,63.6,29.80,West,276,3.0,7.0,35,0.00,,,0.00,Wunderground v.1.15,2013-09-11 22:29:00,
2013-09-11 15:34:00,95.6,64.4,29.80,West,267,4.0,6.0,36,0.00,,,0.00,Wunderground v.1.15,2013-09-11 22:34:00,
2013-09-11 15:39:00,95.4,63.4,29.79,West,279,4.0,7.0,35,0.00,,,0.00,Wunderground v.1.15,2013-09-11 22:39:00,
2013-09-11 15:44:00,95.3,69.3,29.79,WNW,294,4.0,5.0,43,0.00,,,0.00,Wunderground v.1.15,2013-09-11 22:44:00,
2013-09-11 15:49:00,95.4,68.0,29.79,WSW,256,5.0,6.0,41,0.00,,,0.00,Wunderground v.1.15,2013-09-11 22:49:00,
2013-09-11 15:54:00,95.4,64.2,29.79,West,277,3.0,6.0,36,0.00,,,0.00,Wunderground v.1.15,2013-09-11 22:54:00,
2013-09-11 15:59:00,96.1,65.6,29.79,West,260,2.0,6.0,37,0.00,,,0.00,Wunderground v.1.15,2013-09-11 22:59:00,
2013-09-11 16:04:00,96.3,65.0,29.79,WNW,283,3.0,4.0,36,0.00,,,0.00,Wunderground v.1.15,2013-09-11 23:04:00,
2013-09-11 16:09:00,96.8,59.3,29.78,WSW,239,0.0,4.0,29,0.00,,,0.00,Wunderground v.1.15,2013-09-11 23:09:00,
2013-09-11 16:14:00,97.9,64.8,29.78,WNW,286,2.0,3.0,34,0.00,,,0.00,Wunderground v.1.15,2013-09-11 23:14:00,
2013-09-11 16:19:00,97.1,66.5,29.78,West,280,2.0,4.0,37,0.00,,,0.00,Wunderground v.1.15,2013-09-11 23:19:00,
2013-09-11 16:24:00,97.1,66.5,29.78,West,276,0.0,2.0,37,0.00,,,0.00,Wunderground v.1.15,2013-09-11 23:24:00,
2013-09-11 16:29:00,97.3,67.4,29.78,NNW,332,2.0,2.0,38,0.00,,,0.00,Wunderground v.1.15,2013-09-11 23:29:00,
2013-09-11 16:34:00,97.1,67.3,29.78,WNW,294,5.0,5.0,38,0.00,,,0.00,Wunderground v.1.15,2013-09-11 23:34:00,
2013-09-11 16:39:00,95.9,69.1,29.78,North,353,3.0,5.0,42,0.00,,,0.00,Wunderground v.1.15,2013-09-11 23:39:00,
2013-09-11 16:44:00,95.6,71.5,29.78,NW,325,3.0,4.0,46,0.00,,,0.00,Wunderground v.1.15,2013-09-11 23:44:00,
2013-09-11 16:49:00,95.6,68.8,29.78,NNW,338,3.0,4.0,42,0.00,,,0.00,Wunderground v.1.15,2013-09-11 23:49:00,
2013-09-11 16:54:00,95.4,72.0,29.78,NNW,342,3.0,4.0,47,0.00,,,0.00,Wunderground v.1.15,2013-09-11 23:54:00,
2013-09-11 16:59:00,95.0,70.3,29.78,NNW,342,2.0,4.0,45,0.00,,,0.00,Wunderground v.1.15,2013-09-11 23:59:00,
2013-09-11 17:04:00,95.0,71.0,29.77,NW,314,2.0,3.0,46,0.00,,,0.00,Wunderground v.1.15,2013-09-12 00:04:00,
2013-09-11 17:09:00,94.9,73.4,29.77,NW,319,2.0,3.0,50,0.00,,,0.00,Wunderground v.1.15,2013-09-12 00:09:00,
2013-09-11 17:14:00,94.8,68.8,29.77,NW,315,2.0,4.0,43,0.00,,,0.00,Wunderground v.1.15,2013-09-12 00:14:00,
2013-09-11 17:19:00,94.8,70.1,29.77,NNW,332,3.0,4.0,45,0.00,,,0.00,Wunderground v.1.15,2013-09-12 00:19:00,
2013-09-11 17:24:00,94.7,66.6,29.77,NW,310,1.0,3.0,40,0.00,,,0.00,Wunderground v.1.15,2013-09-12 00:24:00,
2013-09-11 17:29:00,94.7,71.3,29.77,WNW,286,2.0,3.0,47,0.00,,,0.00,Wunderground v.1.15,2013-09-12 00:29:00,
2013-09-11 17:34:00,94.8,67.4,29.77,SW,222,0.0,4.0,41,0.00,,,0.00,Wunderground v.1.15,2013-09-12 00:34:00,
2013-09-11 17:39:00,95.2,64.8,29.77,NW,315,2.0,4.0,37,0.00,,,0.00,Wunderground v.1.15,2013-09-12 00:39:00,
2013-09-11 17:44:00,95.2,64.0,29.77,NW,314,0.0,2.0,36,0.00,,,0.00,Wunderground v.1.15,2013-09-12 00:44:00,
2013-09-11 17:49:00,95.7,68.2,29.77,West,281,0.0,2.0,41,0.00,,,0.00,Wunderground v.1.15,2013-09-12 00:49:00,
2013-09-11 17:54:00,95.9,67.0,29.76,WNW,297,1.0,1.0,39,0.00,,,0.00,Wunderground v.1.15,2013-09-12 00:54:00,
2013-09-11 17:59:00,95.5,67.3,29.77,NW,323,0.0,2.0,40,0.00,,,0.00,Wunderground v.1.15,2013-09-12 00:59:00,
2013-09-11 18:04:00,95.0,66.9,29.77,NW,316,2.0,2.0,40,0.00,,,0.00,Wunderground v.1.15,2013-09-12 01:04:00,
2013-09-11 18:09:00,94.2,67.6,29.76,NW,325,2.0,2.0,42,0.00,,,0.00,Wunderground v.1.15,2013-09-12 01:09:00,
2013-09-11 18:14:00,93.8,65.8,29.76,NW,316,1.0,2.0,40,0.00,,,0.00,Wunderground v.1.15,2013-09-12 01:14:00,
2013-09-11 18:19:00,93.6,67.7,29.76,NW,321,1.0,2.0,43,0.00,,,0.00,Wunderground v.1.15,2013-09-12 01:19:00,
2013-09-11 18:24:00,93.4,64.7,29.76,NW,323,1.0,2.0,39,0.00,,,0.00,Wunderground v.1.15,2013-09-12 01:24:00,
2013-09-11 18:29:00,93.5,63.3,29.76,NW,322,0.0,2.0,37,0.00,,,0.00,Wunderground v.1.15,2013-09-12 01:29:00,
2013-09-11 18:34:00,93.5,64.1,29.76,NW,322,0.0,1.0,38,0.00,,,0.00,Wunderground v.1.15,2013-09-12 01:34:00,
2013-09-11 18:39:00,93.5,64.8,29.76,NW,325,0.0,1.0,39,0.00,,,0.00,Wunderground v.1.15,2013-09-12 01:39:00,
2013-09-11 18:44:00,93.0,64.4,29.76,North,8,0.0,1.0,39,0.00,,,0.00,Wunderground v.1.15,2013-09-12 01:44:00,
2013-09-11 18:49:00,92.4,66.0,29.76,North,9,0.0,1.0,42,0.00,,,0.00,Wunderground v.1.15,2013-09-12 01:49:00,
2013-09-11 18:54:00,91.9,64.8,29.76,North,8,0.0,0.0,41,0.00,,,0.00,Wunderground v.1.15,2013-09-12 01:54:00,
2013-09-11 18:59:00,91.4,65.1,29.76,North,9,0.0,0.0,42,0.00,,,0.00,Wunderground v.1.15,2013-09-12 01:59:00,
2013-09-11 19:04:00,91.0,64.0,29.76,North,9,0.0,1.0,41,0.00,,,0.00,Wunderground v.1.15,2013-09-12 02:04:00,
2013-09-11 19:09:00,90.9,64.6,29.76,North,9,0.0,1.0,42,0.00,,,0.00,Wunderground v.1.15,2013-09-12 02:09:00,
2013-09-11 19:14:00,90.8,64.5,29.76,North,8,0.0,0.0,42,0.00,,,0.00,Wunderground v.1.15,2013-09-12 02:14:00,
2013-09-11 19:19:00,90.4,62.8,29.76,North,3,0.0,1.0,40,0.00,,,0.00,Wunderground v.1.15,2013-09-12 02:19:00,
2013-09-11 19:24:00,90.0,65.8,29.76,NNW,332,1.0,2.0,45,0.00,,,0.00,Wunderground v.1.15,2013-09-12 02:24:00,
2013-09-11 19:29:00,88.8,62.7,29.77,NNW,328,0.0,2.0,42,0.00,,,0.00,Wunderground v.1.15,2013-09-12 02:29:00,
2013-09-11 19:34:00,88.3,65.5,29.76,NNW,328,0.0,0.0,47,0.00,,,0.00,Wunderground v.1.15,2013-09-12 02:34:00,
2013-09-11 19:39:00,87.5,63.5,29.77,NNW,328,0.0,0.0,45,0.00,,,0.00,Wunderground v.1.15,2013-09-12 02:39:00,
2013-09-11 19:44:00,87.1,63.8,29.77,NNE,14,0.0,1.0,46,0.00,,,0.00,Wunderground v.1.15,2013-09-12 02:44:00,
2013-09-11 19:49:00,87.3,64.6,29.77,NNE,16,0.0,1.0,47,0.00,,,0.00,Wunderground v.1.15,2013-09-12 02:49:00,
2013-09-11 19:54:00,87.4,64.7,29.77,NNE,16,0.0,1.0,47,0.00,,,0.00,Wunderground v.1.15,2013-09-12 02:54:00,
2013-09-11 19:59:00,87.7,65.6,29.77,NNE,15,0.0,1.0,48,0.00,,,0.00,Wunderground v.1.15,2013-09-12 02:59:00,
2013-09-11 20:04:00,87.8,66.3,29.77,NNE,16,0.0,0.0,49,0.00,,,0.00,Wunderground v.1.15,2013-09-12 03:04:00,
2013-09-11 20:09:00,87.7,65.6,29.77,NNE,26,0.0,1.0,48,0.00,,,0.00,Wunderground v.1.15,2013-09-12 03:09:00,
2013-09-11 20:14:00,87.8,65.7,29.77,ESE,108,0.0,1.0,48,0.00,,,0.00,Wunderground v.1.15,2013-09-12 03:14:00,
2013-09-11 20:19:00,88.1,65.9,29.77,ESE,108,0.0,1.0,48,0.00,,,0.00,Wunderground v.1.15,2013-09-12 03:19:00,
2013-09-11 20:24:00,87.9,65.2,29.78,ESE,111,0.0,1.0,47,0.00,,,0.00,Wunderground v.1.15,2013-09-12 03:24:00,
2013-09-11 20:29:00,87.9,65.2,29.78,ESE,113,0.0,1.0,47,0.00,,,0.00,Wunderground v.1.15,2013-09-12 03:29:00,
2013-09-11 20:34:00,88.0,65.8,29.78,ESE,115,0.0,1.0,48,0.00,,,0.00,Wunderground v.1.15,2013-09-12 03:34:00,
2013-09-11 20:39:00,87.9,65.2,29.78,ESE,111,0.0,1.0,47,0.00,,,0.00,Wunderground v.1.15,2013-09-12 03:39:00,
2013-09-11 20:44:00,87.9,65.2,29.78,ESE,110,0.0,1.0,47,0.00,,,0.00,Wunderground v.1.15,2013-09-12 03:44:00,
2013-09-11 20:49:00,87.7,65.0,29.78,ESE,112,0.0,1.0,47,0.00,,,0.00,Wunderground v.1.15,2013-09-12 03:49:00,
2013-09-11 20:54:00,87.4,65.3,29.78,ESE,111,0.0,1.0,48,0.00,,,0.00,Wunderground v.1.15,2013-09-12 03:54:00,
2013-09-11 20:59:00,87.1,63.8,29.78,ESE,111,0.0,1.0,46,0.00,,,0.00,Wunderground v.1.15,2013-09-12 03:59:00,
2013-09-11 21:01:00,87.1,63.2,29.78,ESE,111,0.0,0.0,45,0.00,,,0.00,Wunderground v.1.15,2013-09-12 04:01:00,
2013-09-11 21:06:00,87.3,63.4,29.78,ESE,113,0.0,1.0,45,0.00,,,0.00,Wunderground v.1.15,2013-09-12 04:06:00,
2013-09-11 21:11:00,87.2,62.0,29.78,ESE,104,1.0,2.0,43,0.00,,,0.00,Wunderground v.1.15,2013-09-12 04:11:00,
2013-09-11 21:16:00,87.5,61.6,29.79,ESE,105,1.0,2.0,42,0.00,,,0.00,Wunderground v.1.15,2013-09-12 04:16:00,
2013-09-11 21:21:00,87.7,61.8,29.79,East,94,0.0,0.0,42,0.00,,,0.00,Wunderground v.1.15,2013-09-12 04:21:00,
2013-09-11 21:26:00,87.5,61.6,29.79,East,94,0.0,0.0,42,0.00,,,0.00,Wunderground v.1.15,2013-09-12 04:26:00,
2013-09-11 21:31:00,87.1,61.2,29.79,East,101,0.0,0.0,42,0.00,,,0.00,Wunderground v.1.15,2013-09-12 04:31:00,
2013-09-11 21:36:00,84.2,66.8,29.80,NNW,333,3.0,3.0,56,0.00,,,0.00,Wunderground v.1.15,2013-09-12 04:36:00,
2013-09-11 21:41:00,81.0,65.8,29.80,North,360,0.0,2.0,60,0.00,,,0.00,Wunderground v.1.15,2013-09-12 04:41:00,
2013-09-11 21:46:00,80.1,65.4,29.80,North,359,0.0,2.0,61,0.00,,,0.00,Wunderground v.1.15,2013-09-12 04:46:00,
2013-09-11 21:51:00,80.3,64.7,29.80,NNE,16,0.0,0.0,59,0.00,,,0.00,Wunderground v.1.15,2013-09-12 04:51:00,
2013-09-11 21:56:00,80.6,65.9,29.80,NNW,348,1.0,2.0,61,0.00,,,0.00,Wunderground v.1.15,2013-09-12 04:56:00,
2013-09-11 22:01:00,80.1,65.0,29.80,NNE,12,0.0,0.0,60,0.00,,,0.00,Wunderground v.1.15,2013-09-12 05:01:00,
2013-09-11 22:06:00,79.9,64.8,29.80,NNE,12,0.0,1.0,60,0.00,,,0.00,Wunderground v.1.15,2013-09-12 05:06:00,
2013-09-11 22:11:00,80.3,65.1,29.80,NNE,12,0.0,1.0,60,0.00,,,0.00,Wunderground v.1.15,2013-09-12 05:11:00,
2013-09-11 22:16:00,80.9,65.2,29.80,North,11,0.0,1.0,59,0.00,,,0.00,Wunderground v.1.15,2013-09-12 05:16:00,
2013-09-11 22:21:00,80.9,63.7,29.80,North,10,0.0,0.0,56,0.00,,,0.00,Wunderground v.1.15,2013-09-12 05:21:00,
2013-09-11 22:26:00,81.6,63.3,29.80,North,10,0.0,0.0,54,0.00,,,0.00,Wunderground v.1.15,2013-09-12 05:26:00,
2013-09-11 22:31:00,82.3,65.0,29.80,North,5,0.0,0.0,56,0.00,,,0.00,Wunderground v.1.15,2013-09-12 05:31:00,
2013-09-11 22:36:00,82.2,62.3,29.80,North,5,0.0,1.0,51,0.00,,,0.00,Wunderground v.1.15,2013-09-12 05:36:00,
2013-09-11 22:41:00,82.3,62.4,29.81,North,5,0.0,0.0,51,0.00,,,0.00,Wunderground v.1.15,2013-09-12 05:41:00,
2013-09-11 22:46:00,82.2,63.9,29.81,North,4,0.0,1.0,54,0.00,,,0.00,Wunderground v.1.15,2013-09-12 05:46:00,
2013-09-11 22:51:00,81.8,63.5,29.81,North,5,0.0,0.0,54,0.00,,,0.00,Wunderground v.1.15,2013-09-12 05:51:00,
2013-09-11 22:56:00,81.6,63.3,29.81,North,5,0.0,0.0,54,0.00,,,0.00,Wunderground v.1.15,2013-09-12 05:56:00,
2013-09-11 23:01:00,82.2,62.3,29.81,ENE,67,0.0,0.0,51,0.00,,,0.00,Wunderground v.1.15,2013-09-12 06:01:00,
2013-09-11 23:06:00,82.7,61.6,29.81,NE,42,0.0,1.0,49,0.00,,,0.00,Wunderground v.1.15,2013-09-12 06:06:00,
2013-09-11 23:11:00,82.9,60.6,29.81,East,81,0.0,0.0,47,0.00,,,0.00,Wunderground v.1.15,2013-09-12 06:11:00,
2013-09-11 23:16:00,83.6,60.6,29.81,ENE,67,0.0,2.0,46,0.00,,,0.00,Wunderground v.1.15,2013-09-12 06:16:00,
2013-09-11 23:21:00,84.2,59.9,29.81,ENE,58,1.0,2.0,44,0.00,,,0.00,Wunderground v.1.15,2013-09-12 06:21:00,
2013-09-11 23:26:00,84.8,60.5,29.81,ENE,60,2.0,2.0,44,0.00,,,0.00,Wunderground v.1.15,2013-09-12 06:26:00,
2013-09-11 23:31:00,84.9,60.6,29.81,East,89,1.0,2.0,44,0.00,,,0.00,Wunderground v.1.15,2013-09-12 06:31:00,
2013-09-11 23:36:00,84.9,60.6,29.81,ENE,75,1.0,2.0,44,0.00,,,0.00,Wunderground v.1.15,2013-09-12 06:36:00,
2013-09-11 23:41:00,84.8,60.5,29.81,ESE,115,1.0,1.0,44,0.00,,,0.00,Wunderground v.1.15,2013-09-12 06:41:00,
2013-09-11 23:46:00,84.5,60.8,29.81,ESE,110,1.0,1.0,45,0.00,,,0.00,Wunderground v.1.15,2013-09-12 06:46:00,
2013-09-11 23:51:00,84.6,60.3,29.81,East,101,2.0,2.0,44,0.00,,,0.00,Wunderground v.1.15,2013-09-12 06:51:00,
2013-09-11 23:56:00,84.8,60.5,29.81,ESE,102,1.0,2.0,44,0.00,,,0.00,Wunderground v.1.15,2013-09-12 06:56:00,